createdAt,value
2023-05-02T00:00:02.745Z,39
2023-05-02T00:01:02.506Z,39
2023-05-02T00:02:02.533Z,38
2023-05-02T00:03:02.628Z,38
2023-05-02T00:04:02.506Z,38
2023-05-02T00:05:02.456Z,38
2023-05-02T00:06:02.403Z,38
2023-05-02T00:07:02.441Z,38
2023-05-02T00:08:02.364Z,38
2023-05-02T00:09:02.417Z,38
2023-05-02T00:10:02.607Z,38
2023-05-02T00:11:02.402Z,38
2023-05-02T00:12:02.330Z,38
2023-05-02T00:13:02.384Z,38
2023-05-02T00:14:02.312Z,38
2023-05-02T00:15:02.346Z,38
2023-05-02T00:16:02.288Z,38
2023-05-02T00:17:02.360Z,38
2023-05-02T00:18:02.340Z,39
2023-05-02T00:19:02.319Z,39
2023-05-02T00:20:02.475Z,39
2023-05-02T00:21:02.283Z,38
2023-05-02T00:22:02.232Z,38
2023-05-02T00:23:02.334Z,38
2023-05-02T00:24:02.197Z,38
2023-05-02T00:25:02.249Z,38
2023-05-02T00:26:02.180Z,38
2023-05-02T00:27:02.244Z,38
2023-05-02T00:28:02.161Z,38
2023-05-02T00:29:02.203Z,38
2023-05-02T00:30:02.456Z,38
2023-05-02T00:31:02.195Z,38
2023-05-02T00:32:02.112Z,38
2023-05-02T00:33:02.190Z,38
2023-05-02T00:34:02.092Z,38
2023-05-02T00:35:02.153Z,38
2023-05-02T00:36:02.072Z,38
2023-05-02T00:37:02.130Z,38
2023-05-02T00:38:02.053Z,38
2023-05-02T00:39:02.098Z,38
2023-05-02T00:40:02.396Z,38
2023-05-02T00:41:02.064Z,37
2023-05-02T00:42:02.027Z,38
2023-05-02T00:43:02.064Z,38
2023-05-02T00:44:01.985Z,38
2023-05-02T00:45:02.034Z,38
2023-05-02T00:46:02.026Z,37
2023-05-02T00:47:02.013Z,37
2023-05-02T00:48:02.025Z,37
2023-05-02T00:49:01.983Z,37
2023-05-02T00:50:02.593Z,37
2023-05-02T00:51:01.959Z,37
2023-05-02T00:52:01.897Z,37
2023-05-02T00:53:01.954Z,37
2023-05-02T00:54:01.877Z,37
2023-05-02T00:55:01.923Z,37
2023-05-02T00:56:01.856Z,38
2023-05-02T00:57:01.909Z,38
2023-05-02T00:58:01.842Z,38
2023-05-02T00:59:01.884Z,38
2023-05-02T01:00:02.068Z,38
2023-05-02T01:01:01.860Z,38
2023-05-02T01:02:01.871Z,38
2023-05-02T01:03:01.894Z,38
2023-05-02T01:04:01.901Z,37
2023-05-02T01:05:01.814Z,38
2023-05-02T01:06:01.820Z,37
2023-05-02T01:07:01.795Z,37
2023-05-02T01:08:01.729Z,37
2023-05-02T01:09:01.766Z,37
2023-05-02T01:10:01.978Z,37
2023-05-02T01:11:01.739Z,37
2023-05-02T01:12:01.680Z,37
2023-05-02T01:13:01.722Z,37
2023-05-02T01:14:01.657Z,37
2023-05-02T01:15:01.707Z,37
2023-05-02T01:16:01.716Z,37
2023-05-02T01:17:01.685Z,37
2023-05-02T01:18:01.683Z,37
2023-05-02T01:19:01.663Z,37
2023-05-02T01:20:01.796Z,37
2023-05-02T01:21:01.703Z,37
2023-05-02T01:22:01.568Z,37
2023-05-02T01:23:01.632Z,37
2023-05-02T01:24:01.549Z,37
2023-05-02T01:25:01.601Z,37
2023-05-02T01:26:01.530Z,37
2023-05-02T01:27:01.578Z,37
2023-05-02T01:28:01.507Z,37
2023-05-02T01:29:01.540Z,37
2023-05-02T01:30:01.711Z,37
2023-05-02T01:31:01.525Z,37
2023-05-02T01:32:01.515Z,37
2023-05-02T01:33:01.553Z,37
2023-05-02T01:34:01.442Z,37
2023-05-02T01:35:01.491Z,37
2023-05-02T01:36:01.420Z,38
2023-05-02T01:37:01.466Z,38
2023-05-02T01:38:01.409Z,38
2023-05-02T01:39:01.458Z,38
2023-05-02T01:40:01.619Z,38
2023-05-02T01:41:01.434Z,38
2023-05-02T01:42:01.365Z,38
2023-05-02T01:43:01.412Z,38
2023-05-02T01:44:01.338Z,38
2023-05-02T01:45:01.391Z,38
2023-05-02T01:46:01.315Z,38
2023-05-02T01:47:01.411Z,38
2023-05-02T01:48:01.322Z,38
2023-05-02T01:49:01.362Z,37
2023-05-02T01:50:01.494Z,38
2023-05-02T01:51:01.329Z,38
2023-05-02T01:52:01.259Z,38
2023-05-02T01:53:01.337Z,38
2023-05-02T01:54:01.228Z,38
2023-05-02T01:55:01.278Z,38
2023-05-02T01:56:01.211Z,38
2023-05-02T01:57:01.248Z,38
2023-05-02T01:58:01.202Z,37
2023-05-02T01:59:01.244Z,37
2023-05-02T02:00:01.552Z,37
2023-05-02T02:01:01.236Z,37
2023-05-02T02:02:01.170Z,37
2023-05-02T02:03:01.206Z,37
2023-05-02T02:04:01.133Z,37
2023-05-02T02:05:01.163Z,37
2023-05-02T02:06:01.129Z,38
2023-05-02T02:07:01.155Z,38
2023-05-02T02:08:01.081Z,38
2023-05-02T02:09:01.132Z,37
2023-05-02T02:10:01.423Z,37
2023-05-02T02:11:01.108Z,37
2023-05-02T02:12:01.041Z,37
2023-05-02T02:13:01.076Z,37
2023-05-02T02:14:01.013Z,37
2023-05-02T02:15:01.065Z,37
2023-05-02T02:16:01.004Z,38
2023-05-02T02:17:01.247Z,38
2023-05-02T02:18:01.046Z,38
2023-05-02T02:19:01.013Z,37
2023-05-02T02:20:01.155Z,38
2023-05-02T02:21:01.055Z,38
2023-05-02T02:22:00.926Z,38
2023-05-02T02:23:00.989Z,38
2023-05-02T02:24:00.906Z,38
2023-05-02T02:25:00.960Z,37
2023-05-02T02:26:00.890Z,37
2023-05-02T02:27:00.926Z,37
2023-05-02T02:28:00.872Z,37
2023-05-02T02:29:00.900Z,37
2023-05-02T02:30:01.198Z,37
2023-05-02T02:31:00.977Z,37
2023-05-02T02:32:00.821Z,37
2023-05-02T02:33:00.954Z,37
2023-05-02T02:34:00.808Z,37
2023-05-02T02:35:00.837Z,37
2023-05-02T02:36:00.781Z,37
2023-05-02T02:37:00.823Z,37
2023-05-02T02:38:00.762Z,37
2023-05-02T02:39:00.804Z,37
2023-05-02T02:40:01.151Z,37
2023-05-02T02:41:00.774Z,37
2023-05-02T02:42:00.706Z,37
2023-05-02T02:43:00.767Z,37
2023-05-02T02:44:00.689Z,38
2023-05-02T02:45:00.747Z,37
2023-05-02T02:46:00.770Z,37
2023-05-02T02:47:00.720Z,37
2023-05-02T02:48:00.680Z,37
2023-05-02T02:49:00.694Z,38
2023-05-02T02:50:00.960Z,38
2023-05-02T02:51:00.743Z,38
2023-05-02T02:52:00.615Z,38
2023-05-02T02:53:00.651Z,38
2023-05-02T02:54:00.584Z,38
2023-05-02T02:55:00.682Z,38
2023-05-02T02:56:00.586Z,37
2023-05-02T02:57:00.597Z,38
2023-05-02T02:58:00.662Z,37
2023-05-02T02:59:00.519Z,37
2023-05-02T03:00:00.982Z,37
2023-05-02T03:01:00.492Z,37
2023-05-02T03:02:00.626Z,37
2023-05-02T03:03:00.517Z,37
2023-05-02T03:04:00.606Z,37
2023-05-02T03:05:00.447Z,37
2023-05-02T03:06:00.558Z,37
2023-05-02T03:07:00.431Z,37
2023-05-02T03:08:00.501Z,37
2023-05-02T03:09:00.427Z,37
2023-05-02T03:10:00.709Z,37
2023-05-02T03:11:00.396Z,37
2023-05-02T03:12:00.440Z,37
2023-05-02T03:13:00.382Z,37
2023-05-02T03:14:00.422Z,37
2023-05-02T03:15:00.354Z,37
2023-05-02T03:16:00.418Z,38
2023-05-02T03:17:00.337Z,37
2023-05-02T03:18:00.400Z,37
2023-05-02T03:19:00.311Z,37
2023-05-02T03:20:00.632Z,37
2023-05-02T03:21:00.292Z,37
2023-05-02T03:22:00.335Z,37
2023-05-02T03:23:00.273Z,37
2023-05-02T03:24:00.307Z,37
2023-05-02T03:25:00.250Z,37
2023-05-02T03:26:00.320Z,38
2023-05-02T03:27:00.232Z,37
2023-05-02T03:28:00.277Z,37
2023-05-02T03:29:00.209Z,37
2023-05-02T03:30:00.509Z,37
2023-05-02T03:31:00.199Z,37
2023-05-02T03:32:00.315Z,37
2023-05-02T03:33:00.191Z,37
2023-05-02T03:34:00.334Z,37
2023-05-02T03:35:00.183Z,37
2023-05-02T03:36:00.212Z,37
2023-05-02T03:37:00.117Z,37
2023-05-02T03:38:00.166Z,37
2023-05-02T03:39:00.108Z,37
2023-05-02T03:40:00.434Z,37
2023-05-02T03:41:00.096Z,37
2023-05-02T03:42:00.141Z,37
2023-05-02T03:43:00.051Z,37
2023-05-02T03:44:00.136Z,37
2023-05-02T03:45:00.033Z,36
2023-05-02T03:46:00.130Z,36
2023-05-02T03:46:59.982Z,372.
2023-05-02T03:48:00.135Z,37
2023-05-02T03:49:00.008Z,37
2023-05-02T03:50:00.292Z,375.
2023-05-02T03:50:59.917Z,376.
2023-05-02T03:51:59.966Z,377.
2023-05-02T03:52:59.902Z,376.
2023-05-02T03:53:59.945Z,377.
2023-05-02T03:54:59.869Z,378.
2023-05-02T03:55:59.914Z,376.
2023-05-02T03:56:59.847Z,375.
2023-05-02T03:57:59.888Z,374.
2023-05-02T03:58:59.835Z,376.
2023-05-02T04:00:00.153Z,376.
2023-05-02T04:00:59.807Z,376.
2023-05-02T04:01:59.932Z,375.
2023-05-02T04:02:59.862Z,374.
2023-05-02T04:03:59.903Z,374.
2023-05-02T04:04:59.763Z,376.
2023-05-02T04:05:59.826Z,377.
2023-05-02T04:06:59.751Z,378.
2023-05-02T04:07:59.803Z,379.
2023-05-02T04:08:59.842Z,378.
2023-05-02T04:10:00.074Z,377.
2023-05-02T04:10:59.698Z,377.
2023-05-02T04:11:59.755Z,376.
2023-05-02T04:12:59.735Z,374.
2023-05-02T04:13:59.756Z,371.
2023-05-02T04:14:59.703Z,371.
2023-05-02T04:15:59.727Z,371.
2023-05-02T04:16:59.699Z,374.
2023-05-02T04:17:59.854Z,374.
2023-05-02T04:18:59.684Z,374.
2023-05-02T04:20:01.615Z,373.
2023-05-02T04:20:59.590Z,370.
2023-05-02T04:21:59.744Z,370.
2023-05-02T04:22:59.571Z,369.
2023-05-02T04:23:59.625Z,368.
2023-05-02T04:24:59.547Z,369.
2023-05-02T04:25:59.600Z,370.
2023-05-02T04:26:59.525Z,373.
2023-05-02T04:27:59.571Z,374.
2023-05-02T04:28:59.530Z,374.
2023-05-02T04:29:59.698Z,374.
2023-05-02T04:30:59.516Z,375.
2023-05-02T04:31:59.527Z,374.
2023-05-02T04:32:59.631Z,375.
2023-05-02T04:33:59.525Z,375.
2023-05-02T04:34:59.436Z,374.00
2023-05-02T04:35:59.501Z,372.00
2023-05-02T04:36:59.428Z,370.00
2023-05-02T04:37:59.466Z,369.00
2023-05-02T04:38:59.395Z,369.00
2023-05-02T04:39:59.808Z,370.00
2023-05-02T04:40:59.371Z,371.00
2023-05-02T04:41:59.441Z,371.00
2023-05-02T04:42:59.352Z,372.00
2023-05-02T04:43:59.390Z,371.00
2023-05-02T04:44:59.346Z,372.00
2023-05-02T04:45:59.406Z,372.00
2023-05-02T04:46:59.315Z,373.00
2023-05-02T04:47:59.380Z,374.00
2023-05-02T04:48:59.286Z,374.00
2023-05-02T04:49:59.573Z,373.00
2023-05-02T04:50:59.266Z,372.00
2023-05-02T04:51:59.303Z,370.00
2023-05-02T04:52:59.243Z,371.00
2023-05-02T04:53:59.285Z,372.00
2023-05-02T04:54:59.237Z,371.00
2023-05-02T04:55:59.273Z,370.00
2023-05-02T04:56:59.200Z,372.00
2023-05-02T04:57:59.246Z,373.00
2023-05-02T04:58:59.186Z,374.00
2023-05-02T04:59:59.424Z,375.00
2023-05-02T05:00:59.155Z,375.00
2023-05-02T05:01:59.261Z,373.00
2023-05-02T05:03:01.427Z,374.
2023-05-02T05:03:59.284Z,373.
2023-05-02T05:04:59.174Z,374.
2023-05-02T05:05:59.203Z,374.
2023-05-02T05:06:59.214Z,375.
2023-05-02T05:07:59.152Z,376.
2023-05-02T05:08:59.071Z,375.
2023-05-02T05:09:59.328Z,377.
2023-05-02T05:10:59.054Z,378.
2023-05-02T05:11:59.095Z,378.
2023-05-02T05:12:59.043Z,376.
2023-05-02T05:13:59.070Z,378.
2023-05-02T05:14:59.008Z,378.
2023-05-02T05:15:59.089Z,376.
2023-05-02T05:16:58.989Z,379.
2023-05-02T05:17:59.082Z,379.
2023-05-02T05:18:58.962Z,379.
2023-05-02T05:19:59.233Z,379.
2023-05-02T05:20:58.942Z,378.
2023-05-02T05:21:58.981Z,378.
2023-05-02T05:22:58.926Z,375.
2023-05-02T05:23:58.968Z,375.
2023-05-02T05:24:58.898Z,375.
2023-05-02T05:25:58.950Z,377.
2023-05-02T05:26:58.877Z,378.
2023-05-02T05:27:58.914Z,379.
2023-05-02T05:28:58.853Z,380.
2023-05-02T05:29:59.131Z,379.
2023-05-02T05:30:58.838Z,377.
2023-05-02T05:31:58.901Z,376.
2023-05-02T05:32:58.874Z,379.
2023-05-02T05:33:58.941Z,378.
2023-05-02T05:34:58.838Z,380.
2023-05-02T05:35:58.852Z,379.
2023-05-02T05:36:58.773Z,378.
2023-05-02T05:37:58.819Z,381.
2023-05-02T05:38:58.747Z,381.
2023-05-02T05:39:59.170Z,381.
2023-05-02T05:40:58.728Z,381.
2023-05-02T05:41:58.781Z,379.
2023-05-02T05:42:58.709Z,380.
2023-05-02T05:43:58.799Z,379.
2023-05-02T05:44:58.706Z,379.
2023-05-02T05:45:58.736Z,379.
2023-05-02T05:46:58.778Z,380.
2023-05-02T05:47:58.769Z,380.
2023-05-02T05:48:58.639Z,381.
2023-05-02T05:49:58.862Z,383.
2023-05-02T05:50:58.622Z,383.00
2023-05-02T05:51:58.914Z,385.00
2023-05-02T05:52:58.598Z,381.
2023-05-02T05:53:58.789Z,382.
2023-05-02T05:54:58.567Z,384.
2023-05-02T05:55:58.637Z,387.
2023-05-02T05:56:58.558Z,387.
2023-05-02T05:57:58.606Z,389.
2023-05-02T05:58:58.544Z,387.
2023-05-02T05:59:58.638Z,389.
2023-05-02T06:00:58.514Z,389.
2023-05-02T06:01:58.569Z,389.
2023-05-02T06:02:58.541Z,389.
2023-05-02T06:03:58.569Z,386.
2023-05-02T06:04:58.543Z,386.
2023-05-02T06:05:58.566Z,384.
2023-05-02T06:06:58.537Z,384.
2023-05-02T06:07:58.489Z,384.
2023-05-02T06:08:58.426Z,383.
2023-05-02T06:09:58.693Z,382.
2023-05-02T06:10:58.437Z,379.
2023-05-02T06:11:58.456Z,377.
2023-05-02T06:12:58.390Z,377.00
2023-05-02T06:13:58.434Z,381.00
2023-05-02T06:14:58.374Z,385.00
2023-05-02T06:15:58.446Z,387.00
2023-05-02T06:16:58.346Z,390.00
2023-05-02T06:17:58.577Z,390.00
2023-05-02T06:18:58.323Z,390.00
2023-05-02T06:19:58.633Z,391.00
2023-05-02T06:20:58.305Z,393.00
2023-05-02T06:21:58.349Z,397.00
2023-05-02T06:22:58.274Z,399.00
2023-05-02T06:23:58.331Z,400.00
2023-05-02T06:24:58.258Z,403.00
2023-05-02T06:25:58.306Z,407.00
2023-05-02T06:26:58.235Z,409.00
2023-05-02T06:27:58.287Z,413.00
2023-05-02T06:28:58.210Z,415.00
2023-05-02T06:29:58.473Z,418.00
2023-05-02T06:30:58.209Z,425.00
2023-05-02T06:31:58.394Z,427.00
2023-05-02T06:32:58.212Z,428.00
2023-05-02T06:33:58.217Z,432.00
2023-05-02T06:34:58.144Z,434.00
2023-05-02T06:35:59.977Z,436.00
2023-05-02T06:36:58.123Z,438.00
2023-05-02T06:37:58.165Z,439.00
2023-05-02T06:38:58.101Z,442.00
2023-05-02T06:39:58.453Z,442.00
2023-05-02T06:40:58.080Z,447.00
2023-05-02T06:41:58.144Z,451.00
2023-05-02T06:42:58.056Z,456.00
2023-05-02T06:43:58.108Z,458.00
2023-05-02T06:44:58.034Z,462.00
2023-05-02T06:45:58.096Z,465.00
2023-05-02T06:46:58.052Z,469.00
2023-05-02T06:47:58.289Z,468.00
2023-05-02T06:48:57.989Z,470.00
2023-05-02T06:49:58.331Z,478.00
2023-05-02T06:50:57.973Z,481.00
2023-05-02T06:51:58.103Z,482.00
2023-05-02T06:52:57.950Z,485.00
2023-05-02T06:53:57.997Z,488.00
2023-05-02T06:54:57.933Z,497.00
2023-05-02T06:55:57.968Z,499.00
2023-05-02T06:56:57.905Z,502.00
2023-05-02T06:57:57.956Z,504.00
2023-05-02T06:58:57.891Z,505.00
2023-05-02T06:59:58.247Z,506.00
2023-05-02T07:00:57.943Z,507.00
2023-05-02T07:01:57.917Z,512.00
2023-05-02T07:02:57.903Z,513.00
2023-05-02T07:03:57.995Z,517.00
2023-05-02T07:04:57.820Z,518.00
2023-05-02T07:05:57.862Z,519.00
2023-05-02T07:06:57.814Z,519.00
2023-05-02T07:07:57.848Z,519.00
2023-05-02T07:08:57.787Z,520.00
2023-05-02T07:09:58.109Z,524.00
2023-05-02T07:10:57.752Z,527.00
2023-05-02T07:11:57.818Z,528.00
2023-05-02T07:12:57.740Z,524.00
2023-05-02T07:13:57.903Z,526.00
2023-05-02T07:14:57.719Z,528.00
2023-05-02T07:15:57.752Z,531.00
2023-05-02T07:16:57.754Z,535.00
2023-05-02T07:17:57.781Z,537.00
2023-05-02T07:18:57.671Z,541.00
2023-05-02T07:19:57.718Z,548.00
2023-05-02T07:20:57.649Z,546.00
2023-05-02T07:21:57.721Z,550.00
2023-05-02T07:22:57.633Z,548.00
2023-05-02T07:23:57.695Z,552.00
2023-05-02T07:24:57.585Z,570.00
2023-05-02T07:25:57.664Z,571.00
2023-05-02T07:26:57.572Z,568.00
2023-05-02T07:27:57.641Z,565.00
2023-05-02T07:28:57.549Z,566.00
2023-05-02T07:29:57.646Z,566.00
2023-05-02T07:30:57.527Z,566.00
2023-05-02T07:31:57.639Z,570.00
2023-05-02T07:32:57.554Z,573.00
2023-05-02T07:33:57.635Z,578.00
2023-05-02T07:34:57.484Z,580.00
2023-05-02T07:35:57.565Z,580.00
2023-05-02T07:36:57.458Z,579.00
2023-05-02T07:37:57.545Z,580.00
2023-05-02T07:38:57.444Z,580.00
2023-05-02T07:39:57.572Z,581.00
2023-05-02T07:40:57.422Z,582.00
2023-05-02T07:41:57.497Z,583.00
2023-05-02T07:42:57.520Z,582.00
2023-05-02T07:43:57.479Z,582.00
2023-05-02T07:44:57.383Z,583.00
2023-05-02T07:45:57.476Z,583.00
2023-05-02T07:46:57.361Z,586.00
2023-05-02T07:47:57.453Z,585.00
2023-05-02T07:48:57.338Z,585.00
2023-05-02T07:49:57.519Z,586.00
2023-05-02T07:50:57.319Z,583.00
2023-05-02T07:51:57.386Z,583.00
2023-05-02T07:52:57.293Z,585.00
2023-05-02T07:53:57.400Z,585.00
2023-05-02T07:54:57.288Z,586.00
2023-05-02T07:55:57.352Z,584.00
2023-05-02T07:56:57.250Z,582.00
2023-05-02T07:57:57.327Z,580.00
2023-05-02T07:58:57.244Z,579.00
2023-05-02T07:59:57.449Z,574.00
2023-05-02T08:00:57.208Z,576.00
2023-05-02T08:01:57.292Z,578.00
2023-05-02T08:02:57.286Z,577.00
2023-05-02T08:03:57.467Z,577.00
2023-05-02T08:04:57.269Z,575.00
2023-05-02T08:05:57.240Z,576.00
2023-05-02T08:06:57.295Z,577.00
2023-05-02T08:07:57.236Z,576.00
2023-05-02T08:08:57.134Z,578.00
2023-05-02T08:09:57.205Z,577.00
2023-05-02T08:10:57.122Z,573.00
2023-05-02T08:11:57.190Z,571.00
2023-05-02T08:12:57.081Z,574.00
2023-05-02T08:13:57.155Z,575.00
2023-05-02T08:14:57.063Z,572.00
2023-05-02T08:15:57.193Z,575.00
2023-05-02T08:16:57.065Z,576.00
2023-05-02T08:17:57.137Z,573.00
2023-05-02T08:18:57.020Z,572.00
2023-05-02T08:19:57.129Z,570.00
2023-05-02T08:20:57.027Z,570.00
2023-05-02T08:21:57.097Z,572.00
2023-05-02T08:22:59.264Z,572.00
2023-05-02T08:23:57.053Z,572.00
2023-05-02T08:24:56.956Z,574.00
2023-05-02T08:25:57.025Z,576.00
2023-05-02T08:26:56.937Z,577.00
2023-05-02T08:27:57.005Z,576.00
2023-05-02T08:28:56.911Z,575.00
2023-05-02T08:29:58.573Z,572.00
2023-05-02T08:30:56.883Z,572.00
2023-05-02T08:31:56.989Z,574.00
2023-05-02T08:32:56.935Z,576.00
2023-05-02T08:33:57.066Z,574.00
2023-05-02T08:34:56.849Z,572.00
2023-05-02T08:35:57.012Z,572.00
2023-05-02T08:36:58.360Z,572.00
2023-05-02T08:37:56.924Z,570.00
2023-05-02T08:38:56.803Z,568.00
2023-05-02T08:39:56.875Z,568.00
2023-05-02T08:40:56.778Z,565.00
2023-05-02T08:41:56.846Z,565.00
2023-05-02T08:42:56.760Z,563.00
2023-05-02T08:43:56.816Z,563.00
2023-05-02T08:44:56.757Z,566.00
2023-05-02T08:45:56.801Z,568.00
2023-05-02T08:46:56.844Z,567.00
2023-05-02T08:47:56.830Z,567.00
2023-05-02T08:48:56.691Z,570.00
2023-05-02T08:49:56.774Z,571.00
2023-05-02T08:50:56.681Z,571.00
2023-05-02T08:51:56.755Z,570.00
2023-05-02T08:52:56.645Z,568.00
2023-05-02T08:53:56.709Z,571.00
2023-05-02T08:54:56.622Z,571.00
2023-05-02T08:55:56.692Z,570.00
2023-05-02T08:56:56.599Z,569.00
2023-05-02T08:57:56.668Z,568.00
2023-05-02T08:58:56.581Z,569.00
2023-05-02T08:59:56.659Z,571.00
2023-05-02T09:00:56.593Z,569.00
2023-05-02T09:01:56.638Z,569.00
2023-05-02T09:02:56.619Z,567.00
2023-05-02T09:03:56.634Z,568.00
2023-05-02T09:04:56.517Z,567.00
2023-05-02T09:05:56.581Z,567.00
2023-05-02T09:06:56.518Z,572.00
2023-05-02T09:07:56.562Z,575.00
2023-05-02T09:08:56.485Z,575.00
2023-05-02T09:09:56.545Z,574.00
2023-05-02T09:10:56.450Z,575.00
2023-05-02T09:11:56.519Z,576.00
2023-05-02T09:12:56.435Z,575.00
2023-05-02T09:13:56.504Z,572.00
2023-05-02T09:14:56.433Z,570.00
2023-05-02T09:15:56.482Z,574.00
2023-05-02T09:16:56.418Z,574.00
2023-05-02T09:17:56.511Z,573.00
2023-05-02T09:18:56.364Z,572.00
2023-05-02T09:19:56.560Z,571.00
2023-05-02T09:20:56.347Z,572.00
2023-05-02T09:21:56.428Z,575.00
2023-05-02T09:22:56.323Z,575.00
2023-05-02T09:23:56.404Z,575.00
2023-05-02T09:24:56.306Z,574.00
2023-05-02T09:25:56.377Z,572.00
2023-05-02T09:26:56.281Z,573.00
2023-05-02T09:27:56.353Z,573.00
2023-05-02T09:28:56.260Z,570.00
2023-05-02T09:29:56.467Z,569.00
2023-05-02T09:30:56.257Z,568.00
2023-05-02T09:31:56.906Z,566.00
2023-05-02T09:32:56.373Z,567.00
2023-05-02T09:33:56.290Z,567.00
2023-05-02T09:34:56.200Z,563.00
2023-05-02T09:35:56.262Z,563.00
2023-05-02T09:36:56.197Z,564.00
2023-05-02T09:37:56.248Z,565.00
2023-05-02T09:38:56.151Z,565.00
2023-05-02T09:39:56.214Z,567.00
2023-05-02T09:40:56.161Z,569.00
2023-05-02T09:41:56.199Z,570.00
2023-05-02T09:42:56.122Z,571.00
2023-05-02T09:43:56.186Z,574.00
2023-05-02T09:44:56.081Z,576.00
2023-05-02T09:45:56.191Z,576.00
2023-05-02T09:46:56.075Z,582.00
2023-05-02T09:47:56.182Z,586.00
2023-05-02T09:48:56.102Z,588.00
2023-05-02T09:49:56.157Z,594.00
2023-05-02T09:50:56.020Z,606.00
2023-05-02T09:51:56.100Z,610.00
2023-05-02T09:52:56.020Z,613.00
2023-05-02T09:53:56.120Z,614.00
2023-05-02T09:54:55.979Z,617.00
2023-05-02T09:55:56.044Z,620.00
2023-05-02T09:56:55.958Z,621.00
2023-05-02T09:57:56.024Z,624.00
2023-05-02T09:58:55.939Z,622.00
2023-05-02T09:59:55.997Z,620.00
2023-05-02T10:00:55.916Z,621.00
2023-05-02T10:01:56.185Z,622.00
2023-05-02T10:02:55.934Z,624.00
2023-05-02T10:03:55.997Z,627.00
2023-05-02T10:04:55.883Z,628.00
2023-05-02T10:05:55.960Z,628.00
2023-05-02T10:06:56.229Z,625.00
2023-05-02T10:07:55.916Z,625.00
2023-05-02T10:08:55.838Z,626.00
2023-05-02T10:09:55.949Z,629.00
2023-05-02T10:10:55.801Z,630.00
2023-05-02T10:11:55.920Z,630.00
2023-05-02T10:12:55.795Z,633.00
2023-05-02T10:13:55.858Z,632.00
2023-05-02T10:14:55.765Z,634.00
2023-05-02T10:15:55.903Z,636.00
2023-05-02T10:16:55.750Z,636.00
2023-05-02T10:17:55.843Z,634.00
2023-05-02T10:18:55.724Z,632.00
2023-05-02T10:19:55.791Z,634.00
2023-05-02T10:20:55.702Z,636.00
2023-05-02T10:21:55.778Z,635.00
2023-05-02T10:22:55.676Z,635.00
2023-05-02T10:23:55.750Z,634.00
2023-05-02T10:24:55.661Z,634.00
2023-05-02T10:25:56.686Z,636.00
2023-05-02T10:26:55.635Z,636.00
2023-05-02T10:27:55.710Z,636.00
2023-05-02T10:28:55.615Z,636.00
2023-05-02T10:29:55.694Z,634.00
2023-05-02T10:30:55.592Z,631.00
2023-05-02T10:31:55.739Z,634.00
2023-05-02T10:32:55.640Z,631.00
2023-05-02T10:33:55.639Z,632.00
2023-05-02T10:34:55.548Z,629.00
2023-05-02T10:35:56.185Z,628.00
2023-05-02T10:36:55.539Z,627.00
2023-05-02T10:37:55.591Z,627.00
2023-05-02T10:38:55.506Z,623.00
2023-05-02T10:39:55.575Z,622.00
2023-05-02T10:40:55.761Z,623.00
2023-05-02T10:41:55.483Z,624.00
2023-05-02T10:42:55.536Z,622.00
2023-05-02T10:43:55.463Z,621.00
2023-05-02T10:44:55.519Z,623.00
2023-05-02T10:45:55.443Z,621.00
2023-05-02T10:46:55.547Z,623.00
2023-05-02T10:47:55.460Z,624.00
2023-05-02T10:48:55.474Z,623.00
2023-05-02T10:49:55.476Z,625.00
2023-05-02T10:50:55.440Z,625.00
2023-05-02T10:51:55.374Z,625.00
2023-05-02T10:52:55.429Z,626.00
2023-05-02T10:53:55.358Z,626.00
2023-05-02T10:54:55.396Z,624.00
2023-05-02T10:55:55.332Z,620.00
2023-05-02T10:56:55.373Z,621.00
2023-05-02T10:57:55.310Z,620.00
2023-05-02T10:58:55.370Z,624.00
2023-05-02T10:59:55.294Z,622.00
2023-05-02T11:00:55.383Z,622.00
2023-05-02T11:01:55.289Z,619.00
2023-05-02T11:02:55.408Z,620.00
2023-05-02T11:03:55.251Z,622.00
2023-05-02T11:04:55.298Z,621.00
2023-05-02T11:05:55.223Z,622.00
2023-05-02T11:06:55.276Z,621.00
2023-05-02T11:07:55.204Z,622.00
2023-05-02T11:08:55.243Z,625.00
2023-05-02T11:09:55.178Z,623.00
2023-05-02T11:10:55.323Z,623.00
2023-05-02T11:11:55.271Z,627.00
2023-05-02T11:12:55.139Z,625.00
2023-05-02T11:13:55.206Z,625.00
2023-05-02T11:14:55.114Z,625.00
2023-05-02T11:15:55.193Z,627.00
2023-05-02T11:16:55.182Z,629.00
2023-05-02T11:17:55.211Z,626.00
2023-05-02T11:18:55.071Z,627.00
2023-05-02T11:19:55.143Z,631.00
2023-05-02T11:20:55.053Z,628.00
2023-05-02T11:21:55.116Z,625.00
2023-05-02T11:22:55.023Z,625.00
2023-05-02T11:23:55.100Z,622.00
2023-05-02T11:24:55.012Z,622.00
2023-05-02T11:25:55.087Z,619.00
2023-05-02T11:26:54.985Z,619.00
2023-05-02T11:27:55.060Z,616.00
2023-05-02T11:28:54.968Z,617.00
2023-05-02T11:29:55.045Z,617.00
2023-05-02T11:30:56.064Z,613.00
2023-05-02T11:31:55.060Z,613.00
2023-05-02T11:32:54.937Z,612.00
2023-05-02T11:33:55.011Z,611.00
2023-05-02T11:34:54.898Z,609.00
2023-05-02T11:35:54.962Z,612.00
2023-05-02T11:36:54.888Z,611.00
2023-05-02T11:37:54.950Z,611.00
2023-05-02T11:38:54.853Z,611.00
2023-05-02T11:39:54.921Z,612.00
2023-05-02T11:40:54.855Z,612.00
2023-05-02T11:41:54.901Z,615.00
2023-05-02T11:42:54.825Z,615.00
2023-05-02T11:43:54.874Z,617.00
2023-05-02T11:44:54.976Z,618.00
2023-05-02T11:45:54.816Z,616.00
2023-05-02T11:46:54.860Z,617.00
2023-05-02T11:47:54.801Z,613.00
2023-05-02T11:48:54.901Z,611.00
2023-05-02T11:49:54.738Z,612.00
2023-05-02T11:50:54.810Z,611.00
2023-05-02T11:51:54.723Z,612.00
2023-05-02T11:52:54.781Z,612.00
2023-05-02T11:53:54.697Z,614.00
2023-05-02T11:54:54.770Z,614.00
2023-05-02T11:55:54.699Z,612.00
2023-05-02T11:56:54.750Z,611.00
2023-05-02T11:57:54.690Z,611.00
2023-05-02T11:58:54.728Z,611.00
2023-05-02T11:59:54.648Z,612.00
2023-05-02T12:00:54.732Z,612.00
2023-05-02T12:01:54.614Z,616.00
2023-05-02T12:02:54.824Z,617.00
2023-05-02T12:03:54.615Z,618.00
2023-05-02T12:04:54.654Z,619.00
2023-05-02T12:05:54.589Z,618.00
2023-05-02T12:06:54.661Z,617.00
2023-05-02T12:07:54.544Z,618.00
2023-05-02T12:08:54.611Z,615.00
2023-05-02T12:09:54.521Z,615.00
2023-05-02T12:10:54.586Z,618.00
2023-05-02T12:11:54.500Z,618.00
2023-05-02T12:12:54.576Z,621.00
2023-05-02T12:13:54.481Z,621.00
2023-05-02T12:14:54.545Z,623.00
2023-05-02T12:15:54.534Z,622.00
2023-05-02T12:16:54.528Z,621.00
2023-05-02T12:17:54.526Z,622.00
2023-05-02T12:18:54.498Z,621.00
2023-05-02T12:19:54.437Z,620.00
2023-05-02T12:20:54.476Z,618.00
2023-05-02T12:21:54.391Z,616.00
2023-05-02T12:22:54.465Z,617.00
2023-05-02T12:23:54.369Z,615.00
2023-05-02T12:24:54.445Z,615.00
2023-05-02T12:25:54.353Z,618.00
2023-05-02T12:26:54.412Z,619.00
2023-05-02T12:27:54.325Z,617.00
2023-05-02T12:28:54.412Z,616.00
2023-05-02T12:29:54.303Z,615.00
2023-05-02T12:30:54.378Z,612.00
2023-05-02T12:31:54.339Z,613.00
2023-05-02T12:32:54.359Z,611.00
2023-05-02T12:33:54.266Z,610.00
2023-05-02T12:34:54.335Z,612.00
2023-05-02T12:35:54.242Z,613.00
2023-05-02T12:36:54.314Z,614.00
2023-05-02T12:37:54.231Z,614.00
2023-05-02T12:38:54.578Z,612.00
2023-05-02T12:39:54.203Z,608.00
2023-05-02T12:40:54.272Z,607.00
2023-05-02T12:41:54.176Z,607.00
2023-05-02T12:42:54.236Z,606.00
2023-05-02T12:43:54.150Z,608.00
2023-05-02T12:44:54.228Z,606.00
2023-05-02T12:45:54.128Z,605.00
2023-05-02T12:46:54.247Z,609.00
2023-05-02T12:47:54.114Z,610.00
2023-05-02T12:48:54.172Z,609.00
2023-05-02T12:49:54.088Z,607.00
2023-05-02T12:50:54.149Z,608.00
2023-05-02T12:51:54.065Z,609.00
2023-05-02T12:52:54.132Z,610.00
2023-05-02T12:53:54.049Z,612.00
2023-05-02T12:54:54.116Z,613.00
2023-05-02T12:55:54.021Z,615.00
2023-05-02T12:56:54.093Z,616.00
2023-05-02T12:57:53.999Z,617.00
2023-05-02T12:58:54.076Z,612.00
2023-05-02T12:59:53.980Z,612.00
2023-05-02T13:00:54.214Z,610.00
2023-05-02T13:01:53.955Z,609.00
2023-05-02T13:02:54.117Z,611.00
2023-05-02T13:03:53.966Z,612.00